Coleman, Texas
Current Conditions -  °F | °C
As of 8:35 PM on Saturday 25 Oct 2014 (Local Time) from KCOM Reporting Station
Clear Clear  
Wind Chill: 74°   Ceiling: Unl
Heat Index: 74°   Visibility: 10mi
Dew Point: 54°   Wind: 6mph
Humidity: 50%   Direction: 170°S
Pressure: 30.09"   Gusts: NA
Location:  31.83°N, 99.43°W
Report Text: KCOM 260135Z AUTO 17005KT 10SM CLR 23/12 A3009 RMK AO2 T02330124
Loading
Personal Weather Stations






























Interactive Weather Map
Tropical Storm Tracking
New forecast layout! Learn more

10-Day Weather Forecast

Advertisements
Track Severe Weather on mobile